FDX34AM EGKK-EGPH
Flight info
| Callsign | FDX34AM |
|---|---|
| Flight time | 0h 59m |
| Altitude | 38000 |
| Route | LAM L10 BPK UN601 RIBEL DCT INPIP |
| Aircraft | B738/M-SDE2E3FGHIRWXY/LB1 |
Departure
| Time | 2026-05-04 18:38 |
|---|---|
| Airport | London Gatwick Airport (EGKK) |
Arrival
| Time | 2026-05-04 19:38 |
|---|---|
| Airport | Edinburgh Airport (EGPH) |
| Time | Latitude | Longitude | Altitude | Speed | Heading |
|---|---|---|---|---|---|
| 2026-05-04 18:05 | 51.15339 | -0.17751 | 208 ft | 0 kts | 347° |
| 2026-05-04 18:20 | 51.15336 | -0.17750 | 204 ft | 3 kts | 347° |
| 2026-05-04 18:20 | 51.15310 | -0.17739 | 216 ft | 4 kts | 339° |
| 2026-05-04 18:20 | 51.15286 | -0.17720 | 215 ft | 4 kts | 322° |
| 2026-05-04 18:21 | 51.15271 | -0.17690 | 216 ft | 4 kts | 274° |
| 2026-05-04 18:21 | 51.15271 | -0.17679 | 216 ft | 1 kts | 257° |
| 2026-05-04 18:23 | 51.15268 | -0.17698 | 204 ft | 8 kts | 257° |
| 2026-05-04 18:23 | 51.15253 | -0.17807 | 207 ft | 11 kts | 257° |
| 2026-05-04 18:23 | 51.15237 | -0.17920 | 207 ft | 10 kts | 258° |
| 2026-05-04 18:24 | 51.15222 | -0.18031 | 207 ft | 10 kts | 258° |
| 2026-05-04 18:24 | 51.15207 | -0.18138 | 204 ft | 10 kts | 257° |
| 2026-05-04 18:24 | 51.15189 | -0.18268 | 204 ft | 13 kts | 261° |
| 2026-05-04 18:24 | 51.15176 | -0.18409 | 211 ft | 13 kts | 257° |
| 2026-05-04 18:25 | 51.15157 | -0.18544 | 207 ft | 12 kts | 257° |
| 2026-05-04 18:25 | 51.15138 | -0.18678 | 206 ft | 12 kts | 257° |
| 2026-05-04 18:25 | 51.15119 | -0.18812 | 207 ft | 13 kts | 257° |
| 2026-05-04 18:25 | 51.15099 | -0.18960 | 207 ft | 14 kts | 258° |
| 2026-05-04 18:26 | 51.15080 | -0.19111 | 207 ft | 14 kts | 258° |
| 2026-05-04 18:26 | 51.15060 | -0.19256 | 204 ft | 13 kts | 257° |
| 2026-05-04 18:26 | 51.15041 | -0.19395 | 212 ft | 13 kts | 257° |
| 2026-05-04 18:26 | 51.15022 | -0.19532 | 206 ft | 12 kts | 258° |
| 2026-05-04 18:27 | 51.15000 | -0.19682 | 209 ft | 15 kts | 256° |
| 2026-05-04 18:27 | 51.14979 | -0.19839 | 207 ft | 14 kts | 257° |
| 2026-05-04 18:27 | 51.14958 | -0.19990 | 204 ft | 14 kts | 257° |
| 2026-05-04 18:27 | 51.14938 | -0.20133 | 209 ft | 13 kts | 257° |
| 2026-05-04 18:28 | 51.14919 | -0.20272 | 204 ft | 13 kts | 258° |
| 2026-05-04 18:28 | 51.14900 | -0.20408 | 207 ft | 12 kts | 258° |
| 2026-05-04 18:28 | 51.14882 | -0.20540 | 207 ft | 12 kts | 257° |
| 2026-05-04 18:28 | 51.14864 | -0.20668 | 204 ft | 12 kts | 257° |
| 2026-05-04 18:29 | 51.14846 | -0.20794 | 204 ft | 11 kts | 257° |
| 2026-05-04 18:29 | 51.14829 | -0.20915 | 208 ft | 11 kts | 258° |
| 2026-05-04 18:29 | 51.14812 | -0.21044 | 214 ft | 12 kts | 258° |
| 2026-05-04 18:29 | 51.14789 | -0.21170 | 210 ft | 12 kts | 248° |
| 2026-05-04 18:30 | 51.14752 | -0.21387 | 212 ft | 7 kts | 235° |
| 2026-05-04 18:30 | 51.14707 | -0.21402 | 208 ft | 7 kts | 168° |
| 2026-05-04 18:30 | 51.14665 | -0.21369 | 212 ft | 7 kts | 138° |
| 2026-05-04 18:31 | 51.14642 | -0.21342 | 207 ft | 4 kts | 150° |
| 2026-05-04 18:31 | 51.14616 | -0.21329 | 207 ft | 1 kts | 166° |
| 2026-05-04 18:36 | 51.14604 | -0.21324 | 208 ft | 4 kts | 166° |
| 2026-05-04 18:37 | 51.14557 | -0.21298 | 206 ft | 8 kts | 150° |
| 2026-05-04 18:37 | 51.14524 | -0.21224 | 213 ft | 6 kts | 111° |
| 2026-05-04 18:37 | 51.14522 | -0.21161 | 208 ft | 4 kts | 78° |
| 2026-05-04 18:37 | 51.14522 | -0.21159 | 208 ft | 0 kts | 78° |
| 2026-05-04 18:38 | 51.14534 | -0.21064 | 208 ft | 43 kts | 78° |
| 2026-05-04 18:38 | 51.14675 | -0.20052 | 207 ft | 140 kts | 77° |
| 2026-05-04 18:38 | 51.14896 | -0.18230 | 699 ft | 183 kts | 79° |
| 2026-05-04 18:38 | 51.15159 | -0.16130 | 1741 ft | 195 kts | 76° |
| 2026-05-04 18:39 | 51.15475 | -0.13964 | 2688 ft | 214 kts | 75° |
| 2026-05-04 18:39 | 51.15833 | -0.11505 | 2993 ft | 241 kts | 76° |
| 2026-05-04 18:39 | 51.16211 | -0.08866 | 3431 ft | 254 kts | 76° |
| 2026-05-04 18:39 | 51.16800 | -0.06210 | 4135 ft | 258 kts | 57° |
| 2026-05-04 18:40 | 51.17869 | -0.03968 | 4762 ft | 259 kts | 51° |
| 2026-05-04 18:40 | 51.18986 | -0.01707 | 4979 ft | 259 kts | 52° |
| 2026-05-04 18:40 | 51.20109 | 0.00587 | 5018 ft | 264 kts | 52° |
| 2026-05-04 18:40 | 51.21247 | 0.02928 | 5292 ft | 268 kts | 52° |
| 2026-05-04 18:41 | 51.22395 | 0.05301 | 5925 ft | 271 kts | 52° |
| 2026-05-04 18:41 | 51.23547 | 0.07688 | 5987 ft | 269 kts | 52° |
| 2026-05-04 18:41 | 51.24680 | 0.10100 | 6175 ft | 274 kts | 58° |
| 2026-05-04 18:41 | 51.25300 | 0.12944 | 6892 ft | 276 kts | 80° |
| 2026-05-04 18:42 | 51.25636 | 0.15971 | 7690 ft | 278 kts | 79° |
| 2026-05-04 18:42 | 51.25989 | 0.19032 | 8447 ft | 283 kts | 80° |
| 2026-05-04 18:42 | 51.26338 | 0.22038 | 9205 ft | 286 kts | 80° |
| 2026-05-04 18:42 | 51.26802 | 0.25146 | 9975 ft | 292 kts | 66° |
| 2026-05-04 18:43 | 51.28068 | 0.27722 | 10429 ft | 308 kts | 37° |
| 2026-05-04 18:43 | 51.30100 | 0.29083 | 10635 ft | 331 kts | 8° |
| 2026-05-04 18:43 | 51.32466 | 0.28969 | 10961 ft | 348 kts | 349° |
| 2026-05-04 18:43 | 51.34793 | 0.27790 | 11602 ft | 355 kts | 334° |
| 2026-05-04 18:44 | 51.36969 | 0.25906 | 12362 ft | 357 kts | 329° |
| 2026-05-04 18:44 | 51.38378 | 0.24524 | 12889 ft | 359 kts | 328° |
| 2026-05-04 18:44 | 51.41226 | 0.21637 | 13922 ft | 365 kts | 328° |
| 2026-05-04 18:44 | 51.43391 | 0.19466 | 14602 ft | 370 kts | 328° |
| 2026-05-04 18:45 | 51.45602 | 0.17293 | 15306 ft | 375 kts | 328° |
| 2026-05-04 18:45 | 51.47852 | 0.15120 | 15978 ft | 380 kts | 329° |
| 2026-05-04 18:45 | 51.50139 | 0.12939 | 16707 ft | 384 kts | 329° |
| 2026-05-04 18:45 | 51.52459 | 0.10742 | 17396 ft | 389 kts | 329° |
| 2026-05-04 18:46 | 51.54811 | 0.08522 | 18072 ft | 394 kts | 329° |
| 2026-05-04 18:46 | 51.57166 | 0.06303 | 18643 ft | 400 kts | 329° |
| 2026-05-04 18:46 | 51.59564 | 0.04043 | 19344 ft | 401 kts | 328° |
| 2026-05-04 18:46 | 51.61986 | 0.01758 | 19883 ft | 406 kts | 328° |
| 2026-05-04 18:47 | 51.64424 | -0.00545 | 20574 ft | 408 kts | 328° |
| 2026-05-04 18:47 | 51.66889 | -0.02877 | 21138 ft | 412 kts | 328° |
| 2026-05-04 18:47 | 51.69374 | -0.05230 | 21716 ft | 416 kts | 328° |
| 2026-05-04 18:47 | 51.71883 | -0.07609 | 22288 ft | 420 kts | 328° |
| 2026-05-04 18:48 | 51.74410 | -0.10009 | 22849 ft | 423 kts | 328° |
| 2026-05-04 18:48 | 51.76964 | -0.12439 | 23399 ft | 427 kts | 328° |
| 2026-05-04 18:48 | 51.79095 | -0.14468 | 23802 ft | 430 kts | 328° |
| 2026-05-04 18:48 | 51.81683 | -0.16935 | 24261 ft | 433 kts | 327° |
| 2026-05-04 18:49 | 51.84274 | -0.19407 | 24780 ft | 433 kts | 327° |
| 2026-05-04 18:49 | 51.86876 | -0.21894 | 25250 ft | 435 kts | 327° |
| 2026-05-04 18:49 | 51.89466 | -0.24374 | 25660 ft | 439 kts | 327° |
| 2026-05-04 18:49 | 51.92100 | -0.26900 | 26065 ft | 442 kts | 327° |
| 2026-05-04 18:50 | 51.94760 | -0.29453 | 26489 ft | 444 kts | 327° |
| 2026-05-04 18:50 | 51.97425 | -0.32015 | 26913 ft | 447 kts | 327° |
| 2026-05-04 18:50 | 52.00107 | -0.34596 | 27321 ft | 449 kts | 327° |
| 2026-05-04 18:50 | 52.02804 | -0.37196 | 27716 ft | 452 kts | 327° |
| 2026-05-04 18:51 | 52.05515 | -0.39812 | 28134 ft | 453 kts | 327° |
| 2026-05-04 18:51 | 52.08222 | -0.42427 | 28628 ft | 453 kts | 327° |
| 2026-05-04 18:51 | 52.10942 | -0.45061 | 28990 ft | 456 kts | 327° |
| 2026-05-04 18:51 | 52.13678 | -0.47715 | 29299 ft | 459 kts | 327° |
| 2026-05-04 18:52 | 52.16427 | -0.50386 | 29627 ft | 462 kts | 327° |
| 2026-05-04 18:52 | 52.19195 | -0.53078 | 29968 ft | 464 kts | 327° |
| 2026-05-04 18:52 | 52.21969 | -0.55779 | 30271 ft | 466 kts | 327° |
| 2026-05-04 18:52 | 52.24714 | -0.58456 | 30611 ft | 466 kts | 327° |
| 2026-05-04 18:53 | 52.27492 | -0.61167 | 31014 ft | 464 kts | 327° |
| 2026-05-04 18:53 | 52.30256 | -0.63868 | 31499 ft | 461 kts | 328° |
| 2026-05-04 18:53 | 52.33006 | -0.66559 | 31969 ft | 458 kts | 328° |
| 2026-05-04 18:53 | 52.35741 | -0.69240 | 32329 ft | 458 kts | 328° |
| 2026-05-04 18:54 | 52.38485 | -0.71933 | 32640 ft | 459 kts | 328° |
| 2026-05-04 18:54 | 52.41217 | -0.74621 | 32985 ft | 459 kts | 328° |
| 2026-05-04 18:54 | 52.43950 | -0.77312 | 33381 ft | 457 kts | 328° |
| 2026-05-04 18:54 | 52.46671 | -0.79997 | 33769 ft | 456 kts | 328° |
| 2026-05-04 18:55 | 52.49390 | -0.82683 | 34106 ft | 456 kts | 328° |
| 2026-05-04 18:55 | 52.54785 | -0.88025 | 34645 ft | 456 kts | 328° |
| 2026-05-04 18:55 | 52.57500 | -0.90718 | 34904 ft | 456 kts | 328° |
| 2026-05-04 18:56 | 52.60215 | -0.93415 | 35165 ft | 456 kts | 328° |
| 2026-05-04 18:56 | 52.62934 | -0.96116 | 35422 ft | 455 kts | 328° |
| 2026-05-04 18:56 | 52.65644 | -0.98800 | 35692 ft | 455 kts | 328° |
| 2026-05-04 18:56 | 52.68365 | -1.01497 | 35903 ft | 457 kts | 328° |
| 2026-05-04 18:57 | 52.71100 | -1.04211 | 36028 ft | 460 kts | 328° |
| 2026-05-04 18:57 | 52.73829 | -1.06926 | 36418 ft | 457 kts | 328° |
| 2026-05-04 18:57 | 52.76544 | -1.09639 | 36718 ft | 455 kts | 328° |
| 2026-05-04 18:57 | 52.79249 | -1.12358 | 36962 ft | 455 kts | 328° |
| 2026-05-04 18:58 | 52.81958 | -1.15088 | 37196 ft | 456 kts | 328° |
| 2026-05-04 18:58 | 52.84662 | -1.17817 | 37438 ft | 456 kts | 328° |
| 2026-05-04 18:58 | 52.87365 | -1.20548 | 37706 ft | 455 kts | 328° |
| 2026-05-04 18:58 | 52.90066 | -1.23280 | 37974 ft | 454 kts | 328° |
| 2026-05-04 18:59 | 52.95484 | -1.28768 | 38048 ft | 458 kts | 328° |
| 2026-05-04 18:59 | 53.00864 | -1.34225 | 38041 ft | 454 kts | 328° |
| 2026-05-04 19:00 | 53.06241 | -1.39686 | 38039 ft | 451 kts | 328° |
| 2026-05-04 19:00 | 53.11572 | -1.45118 | 38045 ft | 448 kts | 328° |
| 2026-05-04 19:01 | 53.16882 | -1.50546 | 38049 ft | 447 kts | 328° |
| 2026-05-04 19:01 | 53.22198 | -1.55998 | 38047 ft | 450 kts | 328° |
| 2026-05-04 19:02 | 53.27539 | -1.61488 | 38053 ft | 456 kts | 328° |
| 2026-05-04 19:02 | 53.32947 | -1.67061 | 38044 ft | 456 kts | 328° |
| 2026-05-04 19:03 | 53.38337 | -1.72627 | 38043 ft | 455 kts | 328° |
| 2026-05-04 19:03 | 53.43710 | -1.78192 | 38042 ft | 453 kts | 328° |
| 2026-05-04 19:04 | 53.49068 | -1.83762 | 38040 ft | 452 kts | 328° |
| 2026-05-04 19:04 | 53.54410 | -1.89347 | 38041 ft | 452 kts | 328° |
| 2026-05-04 19:05 | 53.59750 | -1.94944 | 38046 ft | 451 kts | 328° |
| 2026-05-04 19:05 | 53.65050 | -2.00490 | 38047 ft | 451 kts | 328° |
| 2026-05-04 19:06 | 53.70389 | -2.06081 | 38050 ft | 451 kts | 328° |
| 2026-05-04 19:06 | 53.75803 | -2.11458 | 38045 ft | 451 kts | 336° |
| 2026-05-04 19:07 | 53.81635 | -2.15346 | 38042 ft | 450 kts | 339° |
| 2026-05-04 19:07 | 53.87457 | -2.19275 | 38043 ft | 449 kts | 338° |
| 2026-05-04 19:08 | 53.93231 | -2.23245 | 38024 ft | 447 kts | 338° |
| 2026-05-04 19:08 | 53.98975 | -2.27190 | 38042 ft | 450 kts | 338° |
| 2026-05-04 19:09 | 54.04794 | -2.31198 | 38036 ft | 452 kts | 338° |
| 2026-05-04 19:09 | 54.10644 | -2.35234 | 38038 ft | 454 kts | 338° |
| 2026-05-04 19:10 | 54.16508 | -2.39293 | 38037 ft | 454 kts | 338° |
| 2026-05-04 19:10 | 54.22367 | -2.43361 | 38042 ft | 454 kts | 337° |
| 2026-05-04 19:11 | 54.28082 | -2.47341 | 37957 ft | 434 kts | 337° |
| 2026-05-04 19:11 | 54.30867 | -2.49284 | 37530 ft | 428 kts | 337° |
| 2026-05-04 19:11 | 54.33614 | -2.51205 | 36966 ft | 426 kts | 337° |
| 2026-05-04 19:12 | 54.36352 | -2.53122 | 36456 ft | 424 kts | 337° |
| 2026-05-04 19:12 | 54.41822 | -2.56962 | 35234 ft | 426 kts | 338° |
| 2026-05-04 19:12 | 54.44570 | -2.58895 | 34605 ft | 427 kts | 338° |
| 2026-05-04 19:13 | 54.47326 | -2.60835 | 33941 ft | 428 kts | 337° |
| 2026-05-04 19:13 | 54.50089 | -2.62782 | 33179 ft | 430 kts | 337° |
| 2026-05-04 19:13 | 54.52858 | -2.64738 | 32495 ft | 430 kts | 337° |
| 2026-05-04 19:13 | 54.55613 | -2.66687 | 32032 ft | 425 kts | 336° |
| 2026-05-04 19:14 | 54.58343 | -2.68621 | 31502 ft | 422 kts | 337° |
| 2026-05-04 19:14 | 54.61052 | -2.70543 | 31010 ft | 419 kts | 337° |
| 2026-05-04 19:14 | 54.63700 | -2.72424 | 30545 ft | 415 kts | 337° |
| 2026-05-04 19:14 | 54.66362 | -2.74318 | 30074 ft | 412 kts | 337° |
| 2026-05-04 19:15 | 54.69003 | -2.76200 | 29531 ft | 408 kts | 337° |
| 2026-05-04 19:15 | 54.71616 | -2.78064 | 29030 ft | 404 kts | 337° |
| 2026-05-04 19:15 | 54.74197 | -2.79906 | 28566 ft | 399 kts | 336° |
| 2026-05-04 19:15 | 54.76755 | -2.81737 | 28091 ft | 395 kts | 336° |
| 2026-05-04 19:16 | 54.79286 | -2.83551 | 27602 ft | 392 kts | 336° |
| 2026-05-04 19:16 | 54.81790 | -2.85348 | 27124 ft | 389 kts | 336° |
| 2026-05-04 19:16 | 54.84283 | -2.87138 | 26641 ft | 386 kts | 336° |
| 2026-05-04 19:16 | 54.86759 | -2.88919 | 26174 ft | 384 kts | 336° |
| 2026-05-04 19:17 | 54.89229 | -2.90700 | 25660 ft | 384 kts | 336° |
| 2026-05-04 19:17 | 54.91717 | -2.92501 | 25146 ft | 391 kts | 336° |
| 2026-05-04 19:17 | 54.94252 | -2.94341 | 24604 ft | 396 kts | 336° |
| 2026-05-04 19:17 | 54.96801 | -2.96193 | 24052 ft | 397 kts | 336° |
| 2026-05-04 19:18 | 54.99349 | -2.98046 | 23467 ft | 396 kts | 335° |
| 2026-05-04 19:18 | 55.01856 | -2.99871 | 22849 ft | 395 kts | 335° |
| 2026-05-04 19:18 | 55.04383 | -3.01712 | 22281 ft | 392 kts | 335° |
| 2026-05-04 19:18 | 55.06889 | -3.03540 | 21729 ft | 388 kts | 335° |
| 2026-05-04 19:19 | 55.09367 | -3.05351 | 21193 ft | 384 kts | 335° |
| 2026-05-04 19:19 | 55.11829 | -3.07153 | 20662 ft | 381 kts | 335° |
| 2026-05-04 19:19 | 55.14261 | -3.08935 | 20141 ft | 378 kts | 335° |
| 2026-05-04 19:19 | 55.15865 | -3.10112 | 19774 ft | 376 kts | 335° |
| 2026-05-04 19:20 | 55.19087 | -3.12474 | 19022 ft | 374 kts | 335° |
| 2026-05-04 19:20 | 55.21482 | -3.14233 | 18465 ft | 373 kts | 335° |
| 2026-05-04 19:20 | 55.23067 | -3.15396 | 18061 ft | 372 kts | 335° |
| 2026-05-04 19:20 | 55.25455 | -3.17154 | 17430 ft | 371 kts | 335° |
| 2026-05-04 19:21 | 55.27824 | -3.18897 | 16829 ft | 368 kts | 335° |
| 2026-05-04 19:21 | 55.30264 | -3.20199 | 16245 ft | 369 kts | 351° |
| 2026-05-04 19:21 | 55.32834 | -3.20166 | 15740 ft | 369 kts | 1° |
| 2026-05-04 19:21 | 55.35386 | -3.19771 | 15150 ft | 368 kts | 3° |
| 2026-05-04 19:22 | 55.37921 | -3.19318 | 14599 ft | 366 kts | 3° |
| 2026-05-04 19:22 | 55.40451 | -3.18864 | 14049 ft | 364 kts | 3° |
| 2026-05-04 19:22 | 55.42969 | -3.18428 | 13457 ft | 363 kts | 2° |
| 2026-05-04 19:22 | 55.45482 | -3.18010 | 12866 ft | 361 kts | 2° |
| 2026-05-04 19:23 | 55.47972 | -3.17607 | 12295 ft | 359 kts | 2° |
| 2026-05-04 19:23 | 55.50452 | -3.17213 | 11758 ft | 356 kts | 2° |
| 2026-05-04 19:23 | 55.52907 | -3.16825 | 11203 ft | 353 kts | 2° |
| 2026-05-04 19:23 | 55.55346 | -3.16440 | 10676 ft | 350 kts | 2° |
| 2026-05-04 19:24 | 55.57765 | -3.16069 | 10140 ft | 348 kts | 1° |
| 2026-05-04 19:24 | 55.60123 | -3.15291 | 9920 ft | 341 kts | 19° |
| 2026-05-04 19:24 | 55.62091 | -3.13115 | 9878 ft | 330 kts | 40° |
| 2026-05-04 19:24 | 55.63585 | -3.10175 | 9748 ft | 312 kts | 48° |
| 2026-05-04 19:25 | 55.64908 | -3.07255 | 9611 ft | 296 kts | 49° |
| 2026-05-04 19:25 | 55.66137 | -3.04481 | 9455 ft | 287 kts | 49° |
| 2026-05-04 19:25 | 55.67357 | -3.01715 | 9217 ft | 284 kts | 49° |
| 2026-05-04 19:25 | 55.68513 | -2.98881 | 8855 ft | 286 kts | 53° |
| 2026-05-04 19:26 | 55.69617 | -2.95955 | 8580 ft | 283 kts | 54° |
| 2026-05-04 19:26 | 55.70696 | -2.93057 | 8319 ft | 280 kts | 54° |
| 2026-05-04 19:26 | 55.71748 | -2.90210 | 8186 ft | 272 kts | 54° |
| 2026-05-04 19:26 | 55.72806 | -2.87456 | 7959 ft | 268 kts | 46° |
| 2026-05-04 19:27 | 55.74256 | -2.85527 | 7710 ft | 258 kts | 20° |
| 2026-05-04 19:27 | 55.75933 | -2.84476 | 7466 ft | 253 kts | 11° |
| 2026-05-04 19:27 | 55.77644 | -2.84380 | 7212 ft | 244 kts | 345° |
| 2026-05-04 19:27 | 55.79246 | -2.85313 | 6916 ft | 242 kts | 336° |
| 2026-05-04 19:28 | 55.80790 | -2.86461 | 6664 ft | 240 kts | 335° |
| 2026-05-04 19:28 | 55.82311 | -2.87628 | 6481 ft | 236 kts | 334° |
| 2026-05-04 19:28 | 55.83806 | -2.88773 | 6345 ft | 229 kts | 335° |
| 2026-05-04 19:28 | 55.85220 | -2.89846 | 6250 ft | 213 kts | 335° |
| 2026-05-04 19:29 | 55.86534 | -2.90837 | 6102 ft | 196 kts | 335° |
| 2026-05-04 19:29 | 55.87765 | -2.91763 | 5798 ft | 188 kts | 335° |
| 2026-05-04 19:29 | 55.88939 | -2.92646 | 5537 ft | 183 kts | 335° |
| 2026-05-04 19:29 | 55.90093 | -2.93512 | 5287 ft | 178 kts | 335° |
| 2026-05-04 19:30 | 55.91235 | -2.94369 | 5041 ft | 182 kts | 335° |
| 2026-05-04 19:30 | 55.92448 | -2.95281 | 4832 ft | 195 kts | 336° |
| 2026-05-04 19:30 | 55.93719 | -2.96234 | 4594 ft | 201 kts | 336° |
| 2026-05-04 19:30 | 55.95025 | -2.97211 | 4361 ft | 205 kts | 335° |
| 2026-05-04 19:31 | 55.96333 | -2.98190 | 4105 ft | 202 kts | 336° |
| 2026-05-04 19:31 | 55.97593 | -2.99132 | 3978 ft | 190 kts | 335° |
| 2026-05-04 19:31 | 55.98775 | -3.00016 | 3846 ft | 179 kts | 335° |
| 2026-05-04 19:31 | 55.99922 | -3.00876 | 3756 ft | 179 kts | 335° |
| 2026-05-04 19:32 | 56.01067 | -3.01735 | 3659 ft | 177 kts | 335° |
| 2026-05-04 19:32 | 56.02200 | -3.02584 | 3566 ft | 176 kts | 335° |
| 2026-05-04 19:32 | 56.03326 | -3.03430 | 3479 ft | 175 kts | 335° |
| 2026-05-04 19:32 | 56.04385 | -3.04451 | 3367 ft | 173 kts | 313° |
| 2026-05-04 19:33 | 56.04754 | -3.06397 | 3281 ft | 172 kts | 263° |
| 2026-05-04 19:33 | 56.04382 | -3.08426 | 3220 ft | 173 kts | 251° |
| 2026-05-04 19:33 | 56.03900 | -3.10426 | 3112 ft | 180 kts | 250° |
| 2026-05-04 19:33 | 56.03366 | -3.12466 | 3028 ft | 179 kts | 246° |
| 2026-05-04 19:34 | 56.02766 | -3.14399 | 2926 ft | 177 kts | 243° |
| 2026-05-04 19:34 | 56.02136 | -3.16278 | 2700 ft | 175 kts | 242° |
| 2026-05-04 19:34 | 56.01519 | -3.18087 | 2479 ft | 166 kts | 243° |
| 2026-05-04 19:34 | 56.00925 | -3.19828 | 2263 ft | 161 kts | 243° |
| 2026-05-04 19:35 | 56.00354 | -3.21500 | 2036 ft | 154 kts | 244° |
| 2026-05-04 19:35 | 55.99814 | -3.23084 | 1839 ft | 148 kts | 243° |
| 2026-05-04 19:35 | 55.99289 | -3.24631 | 1639 ft | 149 kts | 243° |
| 2026-05-04 19:35 | 55.98750 | -3.26212 | 1427 ft | 150 kts | 243° |
| 2026-05-04 19:36 | 55.98202 | -3.27822 | 1222 ft | 148 kts | 243° |
| 2026-05-04 19:36 | 55.97674 | -3.29375 | 1008 ft | 143 kts | 242° |
| 2026-05-04 19:36 | 55.97173 | -3.30810 | 803 ft | 135 kts | 241° |
| 2026-05-04 19:36 | 55.96680 | -3.32225 | 590 ft | 134 kts | 242° |
| 2026-05-04 19:37 | 55.96207 | -3.33701 | 402 ft | 138 kts | 241° |
| 2026-05-04 19:37 | 55.95700 | -3.35160 | 224 ft | 138 kts | 241° |
| 2026-05-04 19:37 | 55.95223 | -3.36611 | 113 ft | 128 kts | 239° |
| 2026-05-04 19:37 | 55.94869 | -3.37637 | 113 ft | 66 kts | 238° |
| 2026-05-04 19:38 | 55.94761 | -3.37952 | 115 ft | 0 kts | 238° |
| 2026-05-04 19:38 | 55.94752 | -3.37977 | 114 ft | 5 kts | 237° |
| 2026-05-04 19:38 | 55.94723 | -3.38042 | 114 ft | 8 kts | 215° |
| 2026-05-04 19:38 | 55.94671 | -3.38033 | 112 ft | 8 kts | 152° |
| 2026-05-04 19:39 | 55.94624 | -3.37983 | 114 ft | 8 kts | 146° |
| 2026-05-04 19:39 | 55.94592 | -3.37906 | 114 ft | 7 kts | 91° |
| 2026-05-04 19:39 | 55.94611 | -3.37823 | 112 ft | 7 kts | 59° |
| 2026-05-04 19:39 | 55.94639 | -3.37747 | 115 ft | 7 kts | 57° |
| 2026-05-04 19:40 | 55.94664 | -3.37675 | 114 ft | 7 kts | 59° |
| 2026-05-04 19:40 | 55.94689 | -3.37598 | 114 ft | 7 kts | 60° |
| 2026-05-04 19:40 | 55.94714 | -3.37521 | 113 ft | 7 kts | 59° |
| 2026-05-04 19:40 | 55.94739 | -3.37446 | 115 ft | 7 kts | 59° |
| 2026-05-04 19:41 | 55.94764 | -3.37374 | 114 ft | 7 kts | 58° |
| 2026-05-04 19:41 | 55.94788 | -3.37303 | 115 ft | 7 kts | 58° |
| 2026-05-04 19:41 | 55.94812 | -3.37234 | 115 ft | 7 kts | 58° |
| 2026-05-04 19:41 | 55.94840 | -3.37152 | 113 ft | 9 kts | 59° |
| 2026-05-04 19:42 | 55.94872 | -3.37056 | 114 ft | 9 kts | 59° |
| 2026-05-04 19:42 | 55.94907 | -3.36955 | 113 ft | 13 kts | 58° |
| 2026-05-04 19:42 | 55.94957 | -3.36805 | 113 ft | 14 kts | 59° |
| 2026-05-04 19:42 | 55.95007 | -3.36658 | 114 ft | 14 kts | 59° |
| 2026-05-04 19:43 | 55.95055 | -3.36517 | 114 ft | 13 kts | 59° |
| 2026-05-04 19:43 | 55.95101 | -3.36381 | 113 ft | 13 kts | 58° |
| 2026-05-04 19:43 | 55.95147 | -3.36249 | 113 ft | 12 kts | 58° |
| 2026-05-04 19:43 | 55.95190 | -3.36119 | 112 ft | 12 kts | 59° |
| 2026-05-04 19:44 | 55.95227 | -3.36006 | 113 ft | 10 kts | 59° |
| 2026-05-04 19:44 | 55.95259 | -3.35909 | 113 ft | 7 kts | 62° |
| 2026-05-04 19:44 | 55.95254 | -3.35826 | 112 ft | 7 kts | 133° |
| 2026-05-04 19:44 | 55.95224 | -3.35782 | 115 ft | 5 kts | 125° |
| 2026-05-04 19:45 | 55.95205 | -3.35726 | 114 ft | 5 kts | 120° |
| 2026-05-04 19:45 | 55.95188 | -3.35670 | 115 ft | 5 kts | 118° |
| 2026-05-04 19:45 | 55.95171 | -3.35616 | 114 ft | 5 kts | 119° |
| 2026-05-04 19:45 | 55.95161 | -3.35577 | 114 ft | 3 kts | 98° |
| 2026-05-04 19:46 | 55.95177 | -3.35549 | 114 ft | 3 kts | 27° |
| 2026-05-04 19:46 | 55.95195 | -3.35532 | 115 ft | 1 kts | 28° |
| 2026-05-04 19:46 | 55.95200 | -3.35527 | 112 ft | 1 kts | 28° |
| 2026-05-04 19:46 | 55.95202 | -3.35525 | 112 ft | 0 kts | 28° |